sensor_id;sensor_type;location;lat;lon;timestamp;P1;durP1;ratioP1;P2;durP2;ratioP2
18146;SDS011;9199;48.832;9.182;2023-02-19T00:01:32;6.30;;;3.90;;
18146;SDS011;9199;48.832;9.182;2023-02-19T00:04:01;6.40;;;3.93;;
18146;SDS011;9199;48.832;9.182;2023-02-19T00:06:29;6.30;;;3.97;;
18146;SDS011;9199;48.832;9.182;2023-02-19T00:08:57;6.13;;;3.78;;
18146;SDS011;9199;48.832;9.182;2023-02-19T00:11:24;5.68;;;4.00;;
18146;SDS011;9199;48.832;9.182;2023-02-19T00:13:53;6.63;;;4.50;;
18146;SDS011;9199;48.832;9.182;2023-02-19T00:16:22;7.43;;;4.20;;
18146;SDS011;9199;48.832;9.182;2023-02-19T00:18:52;6.20;;;3.80;;
18146;SDS011;9199;48.832;9.182;2023-02-19T00:21:20;7.20;;;4.30;;
18146;SDS011;9199;48.832;9.182;2023-02-19T00:23:47;7.22;;;4.72;;
18146;SDS011;9199;48.832;9.182;2023-02-19T00:26:15;7.28;;;4.35;;
18146;SDS011;9199;48.832;9.182;2023-02-19T00:28:42;6.60;;;4.40;;
18146;SDS011;9199;48.832;9.182;2023-02-19T00:31:11;7.35;;;4.20;;
18146;SDS011;9199;48.832;9.182;2023-02-19T00:33:43;6.68;;;4.13;;
18146;SDS011;9199;48.832;9.182;2023-02-19T00:36:11;7.13;;;4.50;;
18146;SDS011;9199;48.832;9.182;2023-02-19T00:38:39;5.88;;;4.25;;
18146;SDS011;9199;48.832;9.182;2023-02-19T00:41:07;6.50;;;4.00;;
18146;SDS011;9199;48.832;9.182;2023-02-19T00:43:44;7.25;;;4.70;;
18146;SDS011;9199;48.832;9.182;2023-02-19T00:46:12;7.65;;;4.85;;
18146;SDS011;9199;48.832;9.182;2023-02-19T00:48:40;6.45;;;4.43;;
18146;SDS011;9199;48.832;9.182;2023-02-19T00:51:06;7.30;;;4.72;;
18146;SDS011;9199;48.832;9.182;2023-02-19T00:53:34;6.37;;;4.07;;
18146;SDS011;9199;48.832;9.182;2023-02-19T00:56:01;5.50;;;3.47;;
18146;SDS011;9199;48.832;9.182;2023-02-19T00:58:28;5.30;;;3.72;;
18146;SDS011;9199;48.832;9.182;2023-02-19T01:00:55;5.30;;;3.72;;
18146;SDS011;9199;48.832;9.182;2023-02-19T01:03:22;6.60;;;3.58;;
18146;SDS011;9199;48.832;9.182;2023-02-19T01:05:49;6.43;;;3.50;;
18146;SDS011;9199;48.832;9.182;2023-02-19T01:08:17;5.20;;;3.53;;
18146;SDS011;9199;48.832;9.182;2023-02-19T01:10:45;5.90;;;4.07;;
18146;SDS011;9199;48.832;9.182;2023-02-19T01:13:12;6.00;;;3.50;;
18146;SDS011;9199;48.832;9.182;2023-02-19T01:15:39;5.93;;;3.63;;
18146;SDS011;9199;48.832;9.182;2023-02-19T01:18:06;6.50;;;4.03;;
18146;SDS011;9199;48.832;9.182;2023-02-19T01:20:33;8.02;;;3.90;;
18146;SDS011;9199;48.832;9.182;2023-02-19T01:23:03;6.00;;;3.60;;
18146;SDS011;9199;48.832;9.182;2023-02-19T01:25:29;5.45;;;3.65;;
18146;SDS011;9199;48.832;9.182;2023-02-19T01:27:57;6.07;;;3.83;;
18146;SDS011;9199;48.832;9.182;2023-02-19T01:30:24;6.63;;;3.50;;
18146;SDS011;9199;48.832;9.182;2023-02-19T01:32:51;5.40;;;3.13;;
18146;SDS011;9199;48.832;9.182;2023-02-19T01:35:17;5.20;;;3.40;;
18146;SDS011;9199;48.832;9.182;2023-02-19T01:37:44;5.90;;;3.20;;
18146;SDS011;9199;48.832;9.182;2023-02-19T01:40:11;4.80;;;3.25;;
18146;SDS011;9199;48.832;9.182;2023-02-19T01:42:40;5.07;;;3.20;;
18146;SDS011;9199;48.832;9.182;2023-02-19T01:45:17;6.07;;;3.00;;
18146;SDS011;9199;48.832;9.182;2023-02-19T01:47:49;4.85;;;2.97;;
18146;SDS011;9199;48.832;9.182;2023-02-19T01:50:20;5.45;;;2.80;;
18146;SDS011;9199;48.832;9.182;2023-02-19T01:52:48;4.53;;;2.47;;
18146;SDS011;9199;48.832;9.182;2023-02-19T01:55:15;4.87;;;2.40;;
18146;SDS011;9199;48.832;9.182;2023-02-19T01:57:43;5.82;;;2.35;;
18146;SDS011;9199;48.832;9.182;2023-02-19T02:00:13;5.32;;;2.58;;
18146;SDS011;9199;48.832;9.182;2023-02-19T02:02:42;4.15;;;2.40;;
18146;SDS011;9199;48.832;9.182;2023-02-19T02:05:14;4.07;;;2.25;;
18146;SDS011;9199;48.832;9.182;2023-02-19T02:07:47;4.77;;;2.30;;
18146;SDS011;9199;48.832;9.182;2023-02-19T02:10:32;3.75;;;2.20;;
18146;SDS011;9199;48.832;9.182;2023-02-19T02:12:59;4.88;;;2.53;;
18146;SDS011;9199;48.832;9.182;2023-02-19T02:15:28;3.67;;;2.10;;
18146;SDS011;9199;48.832;9.182;2023-02-19T02:18:03;4.45;;;2.33;;
18146;SDS011;9199;48.832;9.182;2023-02-19T02:20:40;4.60;;;2.73;;
18146;SDS011;9199;48.832;9.182;2023-02-19T02:23:25;4.82;;;2.63;;
18146;SDS011;9199;48.832;9.182;2023-02-19T02:26:05;4.85;;;2.60;;
18146;SDS011;9199;48.832;9.182;2023-02-19T02:28:45;4.88;;;2.58;;
18146;SDS011;9199;48.832;9.182;2023-02-19T02:31:24;5.32;;;3.00;;
18146;SDS011;9199;48.832;9.182;2023-02-19T02:33:56;6.17;;;2.80;;
18146;SDS011;9199;48.832;9.182;2023-02-19T02:36:30;4.57;;;2.83;;
18146;SDS011;9199;48.832;9.182;2023-02-19T02:38:59;4.28;;;2.65;;
18146;SDS011;9199;48.832;9.182;2023-02-19T02:41:29;4.60;;;3.00;;
18146;SDS011;9199;48.832;9.182;2023-02-19T02:43:57;4.85;;;3.03;;
18146;SDS011;9199;48.832;9.182;2023-02-19T02:46:27;4.97;;;2.90;;
18146;SDS011;9199;48.832;9.182;2023-02-19T02:48:57;4.78;;;2.95;;
18146;SDS011;9199;48.832;9.182;2023-02-19T02:51:29;5.55;;;2.88;;
18146;SDS011;9199;48.832;9.182;2023-02-19T02:53:59;6.25;;;3.05;;
18146;SDS011;9199;48.832;9.182;2023-02-19T02:56:46;6.18;;;2.95;;
18146;SDS011;9199;48.832;9.182;2023-02-19T02:59:15;7.60;;;3.00;;
18146;SDS011;9199;48.832;9.182;2023-02-19T03:01:47;5.25;;;2.83;;
18146;SDS011;9199;48.832;9.182;2023-02-19T03:04:36;4.00;;;2.70;;
18146;SDS011;9199;48.832;9.182;2023-02-19T03:07:24;5.90;;;2.90;;
18146;SDS011;9199;48.832;9.182;2023-02-19T03:09:57;5.90;;;3.08;;
18146;SDS011;9199;48.832;9.182;2023-02-19T03:12:25;5.20;;;3.23;;
18146;SDS011;9199;48.832;9.182;2023-02-19T03:15:13;4.68;;;2.83;;
18146;SDS011;9199;48.832;9.182;2023-02-19T03:18:01;5.15;;;3.10;;
18146;SDS011;9199;48.832;9.182;2023-02-19T03:20:50;5.80;;;2.90;;
18146;SDS011;9199;48.832;9.182;2023-02-19T03:23:20;5.13;;;3.20;;
18146;SDS011;9199;48.832;9.182;2023-02-19T03:26:10;4.50;;;2.80;;
18146;SDS011;9199;48.832;9.182;2023-02-19T03:28:37;5.55;;;2.90;;
18146;SDS011;9199;48.832;9.182;2023-02-19T03:31:23;6.03;;;3.30;;
18146;SDS011;9199;48.832;9.182;2023-02-19T03:33:55;4.63;;;3.30;;
18146;SDS011;9199;48.832;9.182;2023-02-19T03:36:24;5.78;;;3.00;;
18146;SDS011;9199;48.832;9.182;2023-02-19T03:38:59;4.90;;;2.80;;
18146;SDS011;9199;48.832;9.182;2023-02-19T03:41:29;4.75;;;2.95;;
18146;SDS011;9199;48.832;9.182;2023-02-19T03:44:04;4.65;;;3.00;;
18146;SDS011;9199;48.832;9.182;2023-02-19T03:46:39;5.38;;;2.95;;
18146;SDS011;9199;48.832;9.182;2023-02-19T03:49:14;5.43;;;2.97;;
18146;SDS011;9199;48.832;9.182;2023-02-19T03:51:51;4.40;;;2.93;;
18146;SDS011;9199;48.832;9.182;2023-02-19T03:54:26;4.53;;;2.75;;
18146;SDS011;9199;48.832;9.182;2023-02-19T03:57:01;4.75;;;2.60;;
18146;SDS011;9199;48.832;9.182;2023-02-19T03:59:32;5.93;;;2.75;;
18146;SDS011;9199;48.832;9.182;2023-02-19T04:02:05;4.57;;;2.70;;
18146;SDS011;9199;48.832;9.182;2023-02-19T04:04:38;4.40;;;2.60;;
18146;SDS011;9199;48.832;9.182;2023-02-19T04:07:08;4.72;;;2.72;;
18146;SDS011;9199;48.832;9.182;2023-02-19T04:09:36;3.83;;;2.33;;
18146;SDS011;9199;48.832;9.182;2023-02-19T04:12:06;5.30;;;2.67;;
18146;SDS011;9199;48.832;9.182;2023-02-19T04:14:34;4.82;;;2.72;;
18146;SDS011;9199;48.832;9.182;2023-02-19T04:17:08;5.07;;;2.60;;
18146;SDS011;9199;48.832;9.182;2023-02-19T04:19:43;4.43;;;2.30;;
18146;SDS011;9199;48.832;9.182;2023-02-19T04:22:12;3.85;;;2.28;;
18146;SDS011;9199;48.832;9.182;2023-02-19T04:24:41;3.58;;;1.80;;
18146;SDS011;9199;48.832;9.182;2023-02-19T04:27:12;4.63;;;2.15;;
18146;SDS011;9199;48.832;9.182;2023-02-19T04:29:39;4.00;;;1.90;;
18146;SDS011;9199;48.832;9.182;2023-02-19T04:32:08;4.60;;;1.80;;
18146;SDS011;9199;48.832;9.182;2023-02-19T04:34:35;3.92;;;2.00;;
18146;SDS011;9199;48.832;9.182;2023-02-19T04:37:04;3.83;;;1.70;;
18146;SDS011;9199;48.832;9.182;2023-02-19T04:39:31;3.35;;;1.58;;
18146;SDS011;9199;48.832;9.182;2023-02-19T04:41:58;4.20;;;1.37;;
18146;SDS011;9199;48.832;9.182;2023-02-19T04:44:24;2.17;;;1.10;;
18146;SDS011;9199;48.832;9.182;2023-02-19T04:46:51;2.95;;;1.17;;
18146;SDS011;9199;48.832;9.182;2023-02-19T04:49:18;2.58;;;1.00;;
18146;SDS011;9199;48.832;9.182;2023-02-19T04:51:44;2.97;;;0.70;;
18146;SDS011;9199;48.832;9.182;2023-02-19T04:54:12;0.63;;;0.43;;
18146;SDS011;9199;48.832;9.182;2023-02-19T04:56:39;1.00;;;0.50;;
18146;SDS011;9199;48.832;9.182;2023-02-19T04:59:06;1.75;;;0.60;;
18146;SDS011;9199;48.832;9.182;2023-02-19T05:01:32;0.82;;;0.50;;
18146;SDS011;9199;48.832;9.182;2023-02-19T05:03:59;1.60;;;0.50;;
18146;SDS011;9199;48.832;9.182;2023-02-19T05:06:26;1.10;;;0.50;;
18146;SDS011;9199;48.832;9.182;2023-02-19T05:08:53;1.25;;;0.52;;
18146;SDS011;9199;48.832;9.182;2023-02-19T05:11:21;1.10;;;0.52;;
18146;SDS011;9199;48.832;9.182;2023-02-19T05:13:48;0.98;;;0.60;;
18146;SDS011;9199;48.832;9.182;2023-02-19T05:16:15;1.48;;;0.60;;
18146;SDS011;9199;48.832;9.182;2023-02-19T05:18:43;1.63;;;0.60;;
18146;SDS011;9199;48.832;9.182;2023-02-19T05:21:11;2.08;;;0.60;;
18146;SDS011;9199;48.832;9.182;2023-02-19T05:23:38;1.30;;;0.70;;
18146;SDS011;9199;48.832;9.182;2023-02-19T05:26:05;2.35;;;0.60;;
18146;SDS011;9199;48.832;9.182;2023-02-19T05:28:33;2.00;;;0.70;;
18146;SDS011;9199;48.832;9.182;2023-02-19T05:31:02;1.13;;;0.50;;
18146;SDS011;9199;48.832;9.182;2023-02-19T05:33:30;2.25;;;0.60;;
18146;SDS011;9199;48.832;9.182;2023-02-19T05:35:57;1.80;;;0.70;;
18146;SDS011;9199;48.832;9.182;2023-02-19T05:38:24;1.80;;;0.50;;
18146;SDS011;9199;48.832;9.182;2023-02-19T05:40:50;1.95;;;0.60;;
18146;SDS011;9199;48.832;9.182;2023-02-19T05:43:17;1.03;;;0.53;;
18146;SDS011;9199;48.832;9.182;2023-02-19T05:45:45;1.20;;;0.60;;
18146;SDS011;9199;48.832;9.182;2023-02-19T05:48:12;1.25;;;0.60;;
18146;SDS011;9199;48.832;9.182;2023-02-19T05:50:39;1.10;;;0.50;;
18146;SDS011;9199;48.832;9.182;2023-02-19T05:53:05;1.55;;;0.70;;
18146;SDS011;9199;48.832;9.182;2023-02-19T05:55:33;0.80;;;0.50;;
18146;SDS011;9199;48.832;9.182;2023-02-19T05:58:01;1.00;;;0.50;;
18146;SDS011;9199;48.832;9.182;2023-02-19T06:00:27;1.00;;;0.60;;
18146;SDS011;9199;48.832;9.182;2023-02-19T06:02:55;0.90;;;0.60;;
18146;SDS011;9199;48.832;9.182;2023-02-19T06:05:22;0.70;;;0.40;;
18146;SDS011;9199;48.832;9.182;2023-02-19T06:07:49;0.90;;;0.30;;
18146;SDS011;9199;48.832;9.182;2023-02-19T06:10:15;0.70;;;0.50;;
18146;SDS011;9199;48.832;9.182;2023-02-19T06:12:43;0.88;;;0.43;;
18146;SDS011;9199;48.832;9.182;2023-02-19T06:15:10;1.02;;;0.50;;
18146;SDS011;9199;48.832;9.182;2023-02-19T06:17:36;0.90;;;0.60;;
18146;SDS011;9199;48.832;9.182;2023-02-19T06:20:05;1.37;;;0.50;;
18146;SDS011;9199;48.832;9.182;2023-02-19T06:22:32;1.30;;;0.60;;
18146;SDS011;9199;48.832;9.182;2023-02-19T06:24:58;1.00;;;0.60;;
18146;SDS011;9199;48.832;9.182;2023-02-19T06:27:25;0.82;;;0.50;;
18146;SDS011;9199;48.832;9.182;2023-02-19T06:29:52;1.00;;;0.50;;
18146;SDS011;9199;48.832;9.182;2023-02-19T06:32:19;0.90;;;0.50;;
18146;SDS011;9199;48.832;9.182;2023-02-19T06:34:45;0.95;;;0.40;;
18146;SDS011;9199;48.832;9.182;2023-02-19T06:37:13;1.20;;;0.50;;
18146;SDS011;9199;48.832;9.182;2023-02-19T06:39:40;0.98;;;0.50;;
18146;SDS011;9199;48.832;9.182;2023-02-19T06:42:07;1.33;;;0.60;;
18146;SDS011;9199;48.832;9.182;2023-02-19T06:44:34;1.20;;;0.60;;
18146;SDS011;9199;48.832;9.182;2023-02-19T06:47:01;1.00;;;0.50;;
18146;SDS011;9199;48.832;9.182;2023-02-19T06:49:27;1.50;;;0.70;;
18146;SDS011;9199;48.832;9.182;2023-02-19T06:51:54;1.10;;;0.60;;
18146;SDS011;9199;48.832;9.182;2023-02-19T06:54:24;1.05;;;0.60;;
18146;SDS011;9199;48.832;9.182;2023-02-19T06:56:51;1.40;;;0.73;;
18146;SDS011;9199;48.832;9.182;2023-02-19T06:59:18;1.90;;;0.80;;
18146;SDS011;9199;48.832;9.182;2023-02-19T07:01:45;1.67;;;0.80;;
18146;SDS011;9199;48.832;9.182;2023-02-19T07:04:11;1.45;;;0.80;;
18146;SDS011;9199;48.832;9.182;2023-02-19T07:06:38;2.53;;;1.20;;
18146;SDS011;9199;48.832;9.182;2023-02-19T07:09:05;1.87;;;0.97;;
18146;SDS011;9199;48.832;9.182;2023-02-19T07:11:35;1.73;;;0.80;;
18146;SDS011;9199;48.832;9.182;2023-02-19T07:14:04;2.80;;;1.10;;
18146;SDS011;9199;48.832;9.182;2023-02-19T07:16:32;1.50;;;0.80;;
18146;SDS011;9199;48.832;9.182;2023-02-19T07:19:00;1.70;;;0.85;;
18146;SDS011;9199;48.832;9.182;2023-02-19T07:21:27;3.10;;;1.00;;
18146;SDS011;9199;48.832;9.182;2023-02-19T07:23:54;2.20;;;1.00;;
18146;SDS011;9199;48.832;9.182;2023-02-19T07:26:21;1.75;;;0.80;;
18146;SDS011;9199;48.832;9.182;2023-02-19T07:28:50;2.40;;;1.00;;
18146;SDS011;9199;48.832;9.182;2023-02-19T07:31:18;2.13;;;0.90;;
18146;SDS011;9199;48.832;9.182;2023-02-19T07:33:46;1.80;;;0.90;;
18146;SDS011;9199;48.832;9.182;2023-02-19T07:36:14;2.28;;;0.90;;
18146;SDS011;9199;48.832;9.182;2023-02-19T07:38:41;1.92;;;1.10;;
18146;SDS011;9199;48.832;9.182;2023-02-19T07:41:08;3.13;;;1.08;;
18146;SDS011;9199;48.832;9.182;2023-02-19T07:43:36;1.85;;;0.90;;
18146;SDS011;9199;48.832;9.182;2023-02-19T07:46:05;2.93;;;1.17;;
18146;SDS011;9199;48.832;9.182;2023-02-19T07:48:33;2.03;;;0.90;;
18146;SDS011;9199;48.832;9.182;2023-02-19T07:51:00;3.42;;;1.50;;
18146;SDS011;9199;48.832;9.182;2023-02-19T07:53:27;2.30;;;1.13;;
18146;SDS011;9199;48.832;9.182;2023-02-19T07:55:57;2.90;;;1.30;;
18146;SDS011;9199;48.832;9.182;2023-02-19T07:58:24;4.77;;;1.50;;
18146;SDS011;9199;48.832;9.182;2023-02-19T08:00:51;3.85;;;1.35;;
18146;SDS011;9199;48.832;9.182;2023-02-19T08:03:19;2.30;;;1.27;;
18146;SDS011;9199;48.832;9.182;2023-02-19T08:05:46;2.25;;;1.20;;
18146;SDS011;9199;48.832;9.182;2023-02-19T08:08:14;3.05;;;1.25;;
18146;SDS011;9199;48.832;9.182;2023-02-19T08:10:41;4.47;;;1.37;;
18146;SDS011;9199;48.832;9.182;2023-02-19T08:13:27;2.78;;;1.20;;
18146;SDS011;9199;48.832;9.182;2023-02-19T08:15:56;3.85;;;1.20;;
18146;SDS011;9199;48.832;9.182;2023-02-19T08:18:37;2.80;;;1.30;;
18146;SDS011;9199;48.832;9.182;2023-02-19T08:21:04;2.90;;;1.38;;
18146;SDS011;9199;48.832;9.182;2023-02-19T08:23:30;2.87;;;1.17;;
18146;SDS011;9199;48.832;9.182;2023-02-19T08:25:58;3.13;;;1.20;;
18146;SDS011;9199;48.832;9.182;2023-02-19T08:28:25;2.70;;;1.27;;
18146;SDS011;9199;48.832;9.182;2023-02-19T08:30:56;1.95;;;1.00;;
18146;SDS011;9199;48.832;9.182;2023-02-19T08:33:24;3.42;;;1.20;;
18146;SDS011;9199;48.832;9.182;2023-02-19T08:35:52;2.07;;;0.90;;
18146;SDS011;9199;48.832;9.182;2023-02-19T08:38:19;2.15;;;1.00;;
18146;SDS011;9199;48.832;9.182;2023-02-19T08:40:46;3.17;;;1.10;;
18146;SDS011;9199;48.832;9.182;2023-02-19T08:43:14;2.55;;;0.98;;
18146;SDS011;9199;48.832;9.182;2023-02-19T08:45:42;1.77;;;0.80;;
18146;SDS011;9199;48.832;9.182;2023-02-19T08:48:11;2.77;;;0.90;;
18146;SDS011;9199;48.832;9.182;2023-02-19T08:50:38;2.08;;;0.90;;
18146;SDS011;9199;48.832;9.182;2023-02-19T08:53:06;1.60;;;0.70;;
18146;SDS011;9199;48.832;9.182;2023-02-19T08:55:33;1.73;;;0.70;;
18146;SDS011;9199;48.832;9.182;2023-02-19T08:58:02;2.17;;;0.80;;
18146;SDS011;9199;48.832;9.182;2023-02-19T09:00:28;1.37;;;0.70;;
18146;SDS011;9199;48.832;9.182;2023-02-19T09:02:56;1.92;;;0.73;;
18146;SDS011;9199;48.832;9.182;2023-02-19T09:05:23;2.55;;;0.85;;
18146;SDS011;9199;48.832;9.182;2023-02-19T09:07:49;1.30;;;0.65;;
18146;SDS011;9199;48.832;9.182;2023-02-19T09:10:18;2.92;;;0.93;;
18146;SDS011;9199;48.832;9.182;2023-02-19T09:12:44;2.57;;;0.97;;
18146;SDS011;9199;48.832;9.182;2023-02-19T09:15:11;3.75;;;1.27;;
18146;SDS011;9199;48.832;9.182;2023-02-19T09:17:38;2.58;;;1.10;;
18146;SDS011;9199;48.832;9.182;2023-02-19T09:20:04;4.40;;;1.02;;
18146;SDS011;9199;48.832;9.182;2023-02-19T09:22:32;3.45;;;0.90;;
18146;SDS011;9199;48.832;9.182;2023-02-19T09:24:59;3.40;;;1.20;;
18146;SDS011;9199;48.832;9.182;2023-02-19T09:27:27;2.58;;;1.00;;
18146;SDS011;9199;48.832;9.182;2023-02-19T09:29:55;3.35;;;1.20;;
18146;SDS011;9199;48.832;9.182;2023-02-19T09:32:22;2.88;;;1.30;;
18146;SDS011;9199;48.832;9.182;2023-02-19T09:34:49;4.47;;;1.25;;
18146;SDS011;9199;48.832;9.182;2023-02-19T09:37:15;3.47;;;0.90;;
18146;SDS011;9199;48.832;9.182;2023-02-19T09:39:42;3.53;;;1.08;;
18146;SDS011;9199;48.832;9.182;2023-02-19T09:42:10;3.92;;;1.17;;
18146;SDS011;9199;48.832;9.182;2023-02-19T09:44:42;4.20;;;0.93;;
18146;SDS011;9199;48.832;9.182;2023-02-19T09:47:14;4.57;;;1.02;;
18146;SDS011;9199;48.832;9.182;2023-02-19T09:49:43;3.90;;;1.00;;
18146;SDS011;9199;48.832;9.182;2023-02-19T09:52:16;3.92;;;1.10;;
18146;SDS011;9199;48.832;9.182;2023-02-19T09:54:49;4.60;;;1.27;;
18146;SDS011;9199;48.832;9.182;2023-02-19T09:57:21;3.70;;;1.00;;
18146;SDS011;9199;48.832;9.182;2023-02-19T09:59:51;3.67;;;1.10;;
18146;SDS011;9199;48.832;9.182;2023-02-19T10:02:24;6.77;;;1.00;;
18146;SDS011;9199;48.832;9.182;2023-02-19T10:04:51;4.55;;;1.25;;
18146;SDS011;9199;48.832;9.182;2023-02-19T10:07:19;2.83;;;0.85;;
18146;SDS011;9199;48.832;9.182;2023-02-19T10:09:50;4.00;;;0.82;;
18146;SDS011;9199;48.832;9.182;2023-02-19T10:12:22;2.75;;;0.80;;
18146;SDS011;9199;48.832;9.182;2023-02-19T10:14:53;3.57;;;0.83;;
18146;SDS011;9199;48.832;9.182;2023-02-19T10:17:26;5.50;;;1.10;;
18146;SDS011;9199;48.832;9.182;2023-02-19T10:19:58;4.20;;;1.00;;
18146;SDS011;9199;48.832;9.182;2023-02-19T10:22:28;3.75;;;0.93;;
18146;SDS011;9199;48.832;9.182;2023-02-19T10:24:56;3.95;;;1.05;;
18146;SDS011;9199;48.832;9.182;2023-02-19T10:27:24;4.03;;;0.90;;
18146;SDS011;9199;48.832;9.182;2023-02-19T10:29:53;4.88;;;1.00;;
18146;SDS011;9199;48.832;9.182;2023-02-19T10:32:20;4.20;;;1.02;;
18146;SDS011;9199;48.832;9.182;2023-02-19T10:34:59;3.58;;;1.00;;
18146;SDS011;9199;48.832;9.182;2023-02-19T10:37:34;3.50;;;0.90;;
18146;SDS011;9199;48.832;9.182;2023-02-19T10:40:10;4.17;;;0.93;;
18146;SDS011;9199;48.832;9.182;2023-02-19T10:42:43;3.85;;;0.80;;
18146;SDS011;9199;48.832;9.182;2023-02-19T10:45:15;4.28;;;1.08;;
18146;SDS011;9199;48.832;9.182;2023-02-19T10:47:44;3.00;;;0.88;;
18146;SDS011;9199;48.832;9.182;2023-02-19T10:50:17;2.97;;;0.73;;
18146;SDS011;9199;48.832;9.182;2023-02-19T10:52:50;3.20;;;0.80;;
18146;SDS011;9199;48.832;9.182;2023-02-19T10:55:26;3.50;;;1.00;;
18146;SDS011;9199;48.832;9.182;2023-02-19T10:57:55;2.70;;;0.90;;
18146;SDS011;9199;48.832;9.182;2023-02-19T11:00:24;4.13;;;1.00;;
18146;SDS011;9199;48.832;9.182;2023-02-19T11:03:13;5.13;;;1.00;;
18146;SDS011;9199;48.832;9.182;2023-02-19T11:05:52;4.67;;;1.20;;
18146;SDS011;9199;48.832;9.182;2023-02-19T11:08:23;4.82;;;0.90;;
18146;SDS011;9199;48.832;9.182;2023-02-19T11:10:49;4.35;;;0.90;;
18146;SDS011;9199;48.832;9.182;2023-02-19T11:13:19;3.45;;;1.00;;
18146;SDS011;9199;48.832;9.182;2023-02-19T11:15:52;3.33;;;1.00;;
18146;SDS011;9199;48.832;9.182;2023-02-19T11:18:20;2.83;;;0.80;;
18146;SDS011;9199;48.832;9.182;2023-02-19T11:20:49;4.55;;;1.00;;
18146;SDS011;9199;48.832;9.182;2023-02-19T11:23:21;4.00;;;1.35;;
18146;SDS011;9199;48.832;9.182;2023-02-19T11:25:50;3.42;;;1.00;;
18146;SDS011;9199;48.832;9.182;2023-02-19T11:28:21;5.03;;;1.00;;
18146;SDS011;9199;48.832;9.182;2023-02-19T11:30:54;3.70;;;0.90;;
18146;SDS011;9199;48.832;9.182;2023-02-19T11:33:41;2.97;;;0.98;;
18146;SDS011;9199;48.832;9.182;2023-02-19T11:36:23;3.75;;;0.90;;
18146;SDS011;9199;48.832;9.182;2023-02-19T11:38:55;3.78;;;1.13;;
18146;SDS011;9199;48.832;9.182;2023-02-19T11:41:27;4.35;;;0.95;;
18146;SDS011;9199;48.832;9.182;2023-02-19T11:44:10;4.60;;;1.10;;
18146;SDS011;9199;48.832;9.182;2023-02-19T11:46:53;2.92;;;1.00;;
18146;SDS011;9199;48.832;9.182;2023-02-19T11:49:32;3.20;;;1.10;;
18146;SDS011;9199;48.832;9.182;2023-02-19T11:52:20;3.92;;;1.02;;
18146;SDS011;9199;48.832;9.182;2023-02-19T11:54:57;3.50;;;1.00;;
18146;SDS011;9199;48.832;9.182;2023-02-19T11:57:36;3.47;;;1.00;;
18146;SDS011;9199;48.832;9.182;2023-02-19T12:00:16;5.10;;;1.00;;
18146;SDS011;9199;48.832;9.182;2023-02-19T12:02:55;5.30;;;1.20;;
18146;SDS011;9199;48.832;9.182;2023-02-19T12:05:44;3.72;;;1.10;;
18146;SDS011;9199;48.832;9.182;2023-02-19T12:08:28;4.65;;;1.25;;
18146;SDS011;9199;48.832;9.182;2023-02-19T12:11:21;5.37;;;0.80;;
18146;SDS011;9199;48.832;9.182;2023-02-19T12:14:02;5.80;;;1.25;;
18146;SDS011;9199;48.832;9.182;2023-02-19T12:16:50;3.40;;;1.05;;
18146;SDS011;9199;48.832;9.182;2023-02-19T12:19:35;3.38;;;0.80;;
18146;SDS011;9199;48.832;9.182;2023-02-19T12:28:03;4.70;;;0.98;;
18146;SDS011;9199;48.832;9.182;2023-02-19T12:34:04;3.65;;;1.10;;
18146;SDS011;9199;48.832;9.182;2023-02-19T12:36:47;3.70;;;1.08;;
18146;SDS011;9199;48.832;9.182;2023-02-19T12:39:22;3.67;;;1.10;;
18146;SDS011;9199;48.832;9.182;2023-02-19T12:41:59;4.00;;;1.10;;
18146;SDS011;9199;48.832;9.182;2023-02-19T12:44:37;3.67;;;1.08;;
18146;SDS011;9199;48.832;9.182;2023-02-19T12:47:07;3.65;;;1.08;;
18146;SDS011;9199;48.832;9.182;2023-02-19T12:49:42;2.78;;;1.10;;
18146;SDS011;9199;48.832;9.182;2023-02-19T12:52:16;5.03;;;1.30;;
18146;SDS011;9199;48.832;9.182;2023-02-19T12:54:48;2.97;;;0.93;;
18146;SDS011;9199;48.832;9.182;2023-02-19T12:57:18;2.90;;;1.13;;
18146;SDS011;9199;48.832;9.182;2023-02-19T12:59:47;3.70;;;1.15;;
18146;SDS011;9199;48.832;9.182;2023-02-19T13:02:21;5.30;;;1.00;;
18146;SDS011;9199;48.832;9.182;2023-02-19T13:04:53;3.67;;;0.97;;
18146;SDS011;9199;48.832;9.182;2023-02-19T13:07:27;3.95;;;1.13;;
18146;SDS011;9199;48.832;9.182;2023-02-19T13:09:59;3.15;;;1.10;;
18146;SDS011;9199;48.832;9.182;2023-02-19T13:12:34;3.47;;;1.10;;
18146;SDS011;9199;48.832;9.182;2023-02-19T13:15:08;3.83;;;1.00;;
18146;SDS011;9199;48.832;9.182;2023-02-19T13:17:42;3.40;;;1.10;;
18146;SDS011;9199;48.832;9.182;2023-02-19T13:20:12;5.70;;;1.10;;
18146;SDS011;9199;48.832;9.182;2023-02-19T13:22:44;4.10;;;1.10;;
18146;SDS011;9199;48.832;9.182;2023-02-19T13:25:40;3.33;;;0.85;;
18146;SDS011;9199;48.832;9.182;2023-02-19T13:28:19;4.68;;;1.10;;
18146;SDS011;9199;48.832;9.182;2023-02-19T13:31:15;4.67;;;1.00;;
18146;SDS011;9199;48.832;9.182;2023-02-19T13:34:01;3.45;;;1.00;;
18146;SDS011;9199;48.832;9.182;2023-02-19T13:36:34;4.70;;;1.20;;
18146;SDS011;9199;48.832;9.182;2023-02-19T13:39:04;2.65;;;0.85;;
18146;SDS011;9199;48.832;9.182;2023-02-19T13:41:32;5.65;;;1.23;;
18146;SDS011;9199;48.832;9.182;2023-02-19T13:44:05;5.80;;;1.20;;
18146;SDS011;9199;48.832;9.182;2023-02-19T13:46:41;5.15;;;1.33;;
18146;SDS011;9199;48.832;9.182;2023-02-19T13:49:22;4.28;;;1.48;;
18146;SDS011;9199;48.832;9.182;2023-02-19T14:01:17;4.00;;;1.10;;
18146;SDS011;9199;48.832;9.182;2023-02-19T14:03:46;4.57;;;1.23;;
18146;SDS011;9199;48.832;9.182;2023-02-19T14:06:15;4.80;;;1.30;;
18146;SDS011;9199;48.832;9.182;2023-02-19T14:08:47;3.83;;;1.40;;
18146;SDS011;9199;48.832;9.182;2023-02-19T14:11:18;4.47;;;1.20;;
18146;SDS011;9199;48.832;9.182;2023-02-19T14:14:24;5.63;;;1.33;;
18146;SDS011;9199;48.832;9.182;2023-02-19T14:16:56;5.78;;;1.42;;
18146;SDS011;9199;48.832;9.182;2023-02-19T14:19:45;5.78;;;1.52;;
18146;SDS011;9199;48.832;9.182;2023-02-19T14:31:10;4.07;;;1.20;;
18146;SDS011;9199;48.832;9.182;2023-02-19T14:33:57;3.70;;;1.30;;
18146;SDS011;9199;48.832;9.182;2023-02-19T14:36:31;6.15;;;1.40;;
18146;SDS011;9199;48.832;9.182;2023-02-19T14:39:04;5.13;;;1.30;;
18146;SDS011;9199;48.832;9.182;2023-02-19T14:41:35;6.47;;;1.50;;
18146;SDS011;9199;48.832;9.182;2023-02-19T14:44:05;5.60;;;1.25;;
18146;SDS011;9199;48.832;9.182;2023-02-19T14:46:40;4.28;;;1.10;;
18146;SDS011;9199;48.832;9.182;2023-02-19T14:49:14;4.38;;;1.52;;
18146;SDS011;9199;48.832;9.182;2023-02-19T14:51:45;5.23;;;1.50;;
18146;SDS011;9199;48.832;9.182;2023-02-19T14:54:16;6.35;;;1.38;;
18146;SDS011;9199;48.832;9.182;2023-02-19T14:56:47;4.93;;;1.30;;
18146;SDS011;9199;48.832;9.182;2023-02-19T14:59:23;5.20;;;1.23;;
18146;SDS011;9199;48.832;9.182;2023-02-19T15:01:55;5.57;;;1.80;;
18146;SDS011;9199;48.832;9.182;2023-02-19T15:04:23;4.60;;;1.60;;
18146;SDS011;9199;48.832;9.182;2023-02-19T15:06:52;4.30;;;1.38;;
18146;SDS011;9199;48.832;9.182;2023-02-19T15:09:21;4.53;;;1.30;;
18146;SDS011;9199;48.832;9.182;2023-02-19T15:11:52;5.65;;;1.17;;
18146;SDS011;9199;48.832;9.182;2023-02-19T15:14:22;8.68;;;1.77;;
18146;SDS011;9199;48.832;9.182;2023-02-19T15:16:53;5.47;;;1.30;;
18146;SDS011;9199;48.832;9.182;2023-02-19T15:19:23;5.18;;;1.33;;
18146;SDS011;9199;48.832;9.182;2023-02-19T15:21:49;4.97;;;1.30;;
18146;SDS011;9199;48.832;9.182;2023-02-19T15:24:17;4.40;;;1.63;;
18146;SDS011;9199;48.832;9.182;2023-02-19T15:26:46;5.00;;;1.48;;
18146;SDS011;9199;48.832;9.182;2023-02-19T15:29:16;4.47;;;1.40;;
18146;SDS011;9199;48.832;9.182;2023-02-19T15:31:47;5.55;;;1.40;;
18146;SDS011;9199;48.832;9.182;2023-02-19T15:34:16;6.55;;;1.27;;
18146;SDS011;9199;48.832;9.182;2023-02-19T15:36:43;4.75;;;1.73;;
18146;SDS011;9199;48.832;9.182;2023-02-19T15:39:15;6.05;;;1.48;;
18146;SDS011;9199;48.832;9.182;2023-02-19T15:41:50;5.53;;;1.50;;
18146;SDS011;9199;48.832;9.182;2023-02-19T15:47:14;4.50;;;1.48;;
18146;SDS011;9199;48.832;9.182;2023-02-19T15:49:48;3.67;;;1.20;;
18146;SDS011;9199;48.832;9.182;2023-02-19T15:52:21;6.40;;;1.50;;
18146;SDS011;9199;48.832;9.182;2023-02-19T15:54:56;4.03;;;1.33;;